LZTT/TAT METAR and TAF weather

Enter ICAO airport designator
Station Type Date Time Source
LZTT METAR 2020/11/25 22:30 UTC NOAA

LZTT 252230Z 18003KT 150V210 0200 R27/1100N FZFG VV001 M05/M06 Q1023


Station Type Date Time Source
LZTT Decoded METAR 2020/11/25 22:30 UTC NOAA

Poprad / Tatry, Slovakia (LZTT) 49-04N 020-15E 695M
Nov 25, 2020 - 05:30 PM EST / 2020.11.25 2230 UTC
Wind: from the S (180 degrees) at 3 MPH (3 KT) (direction variable):0
Visibility: less than 1 mile:0
Sky conditions: obscured
Weather: freezing fog
Temperature: 23 F (-5 C)
Dew Point: 21 F (-6 C)
Relative Humidity: 92%
Pressure (altimeter): 30.21 in. Hg (1023 hPa)
ob: LZTT 252230Z 18003KT 150V210 0200 R27/1100N FZFG VV001 M05/M06 Q1023
cycle: 22

Station Type Date Time Source
LZTT TAF 2020/11/25 18:55 UTC NOAA

TAF LZTT 251700Z 2518/2618 VRB02KT 0300 FZFG BKN001
TEMPO 2518/2607 0100 FZFG VV001
BECMG 2609/2611 2500 BR SCT004 BKN010
TEMPO 2612/2616 15006KT 9999 SCT013

Example: see airport list